Stations météo

Publicité
Mende, France (7554): Température de l'air & dewpoint: 20.06.2019 19:00:00 - 26.06.2019 19:00:00 (CEST)Mende, France (7554): Température de l'air 5cm: 20.06.2019 19:00:00 - 26.06.2019 19:00:00 (CEST)Mende, France (7554): Température de l'air -20cm & Température de l'air -100cm: 20.06.2019 19:00:00 - 26.06.2019 19:00:00 (CEST)Mende, France (7554): Vitesse du vent & gusts: 20.06.2019 19:00:00 - 26.06.2019 19:00:00 (CEST)Mende, France (7554): Direction du vent: 20.06.2019 19:00:00 - 26.06.2019 19:00:00 (CEST)Mende, France (7554): visibility: 20.06.2019 19:00:00 - 26.06.2019 19:00:00 (CEST)Mende, France (7554): Ensoleillement: 20.06.2019 19:00:00 - 26.06.2019 19:00:00 (CEST)Mende, France (7554): Quantités de précipitations: 20.06.2019 19:00:00 - 26.06.2019 19:00:00 (CEST)
Date & Time tt [°C] td [°C] tt 5cm [°C] tt -20cm [°C] tt -100cm [°C] ff [km/h] ff [knt] fx [km/h] fx [knt] dd vv [km] sd [min] rr [mm]
26.06.2019 19:00:00 29,7 14,3 34,0 20,1 14,5 13 7 29 15 SSE 19 60 0,0
26.06.2019 18:00:00 31,0 13,3 38,3 19,9 14,5 12 6 24 13 SE 19 60 0,0
26.06.2019 17:00:00 31,6 14,7 40,9 19,7 14,4 12 7 31 17 SE 19 60 0,0
26.06.2019 16:00:00 31,5 13,3 41,3 19,7 14,5 15 8 29 16 ESE 20 60 0,0
26.06.2019 15:00:00 31,3 13,6 41,8 19,6 14,4 14 7 29 16 SE 20 60 0,0
26.06.2019 14:00:00 30,3 14,0 40,7 19,7 14,4 16 9 31 17 SE 20 60 0,0
26.06.2019 13:00:00 29,3 13,1 38,6 19,7 14,4 18 10 34 18 SE 20 60 0,0
26.06.2019 12:00:00 27,9 12,7 35,6 19,8 14,4 17 9 41 22 SE 19 60 0,0
26.06.2019 11:00:00 26,8 12,8 31,3 20,0 14,5 16 9 37 20 SE 19 60 0,0
26.06.2019 10:00:00 25,5 11,6 25,9 20,1 14,4 16 9 37 20 SE 20 60 0,0
26.06.2019 09:00:00 24,4 8,4 20,5 20,2 14,4 15 8 30 16 SE 20 60 0,0
26.06.2019 08:00:00 22,9 7,4 16,6 20,4 14,4 13 7 26 14 ESE 20 60 0,0
26.06.2019 07:00:00 21,2 7,1 14,7 20,4 14,4 10 6 21 11 E 20 8 0,0
26.06.2019 06:00:00 21,1 7,0 12,3 20,6 14,4 11 6 22 12 ESE 20 0 0,0
26.06.2019 05:00:00 20,9 7,1 11,6 20,6 14,4 8 4 23 13 ESE 20 0 0,0
26.06.2019 04:00:00 20,7 8,0 11,3 20,6 14,4 8 4 21 11 ESE 20 0 0,0
26.06.2019 03:00:00 20,1 8,4 11,7 20,6 14,4 6 3 18 10 ESE 20 0 0,0
26.06.2019 02:00:00 20,4 8,7 12,7 20,6 14,4 8 5 17 9 SE 20 0 0,0
26.06.2019 01:00:00 21,1 9,7 - - - 9 5 21 11 SE 20 - 0,0
26.06.2019 00:00:00 20,4 10,5 13,0 20,4 14,4 9 5 16 9 SE 20 0 0,0
25.06.2019 23:00:00 21,3 10,5 16,0 20,2 14,3 9 5 41 22 SE 20 0 0,0
25.06.2019 22:00:00 22,2 10,7 18,3 20,0 14,4 11 6 40 22 SE 19 8 0,0
25.06.2019 21:00:00 23,1 11,5 20,6 19,8 14,3 18 10 40 22 SSE 20 39 0,0
25.06.2019 20:00:00 24,8 11,4 24,7 19,6 14,3 16 9 42 23 SE 20 60 0,0
25.06.2019 19:00:00 25,9 11,3 30,0 19,4 14,3 16 9 42 23 SE 20 60 0,0
25.06.2019 18:00:00 26,8 13,2 33,5 19,2 14,3 21 11 38 21 SE 20 60 0,0
25.06.2019 17:00:00 27,3 12,5 - - - 18 10 48 26 S 20 - -
25.06.2019 16:00:00 28,1 13,6 35,7 19,0 14,3 23 12 47 26 SE 20 60 0,0
25.06.2019 15:00:00 27,8 13,0 36,8 19,0 14,2 17 9 48 26 SSE 20 60 0,0
25.06.2019 14:00:00 26,8 12,1 37,3 19,0 14,3 23 13 40 22 SSE 20 60 0,0
25.06.2019 13:00:00 25,9 11,6 31,7 19,0 14,3 15 8 37 20 SSE 20 46 0,0
25.06.2019 12:00:00 25,0 10,8 29,2 19,1 14,3 18 10 42 23 SSE 20 51 0,0
25.06.2019 11:00:00 24,2 9,7 27,2 19,2 14,3 23 12 45 25 SE 20 60 0,0
25.06.2019 10:00:00 22,6 8,3 21,4 19,4 14,3 22 12 45 24 SE 20 53 0,0
25.06.2019 09:00:00 20,9 7,1 19,4 19,5 14,2 24 13 47 26 SE 20 37 0,0
25.06.2019 08:00:00 20,5 5,7 17,5 19,6 14,2 18 10 36 19 ESE 20 60 0,0
25.06.2019 07:00:00 19,4 5,8 15,7 19,7 14,2 18 10 46 25 ESE 20 33 0,0
25.06.2019 06:00:00 19,1 5,9 15,3 19,8 14,3 16 9 39 21 SE 20 0 0,0
25.06.2019 05:00:00 19,6 8,0 16,6 19,8 14,2 20 11 49 26 ESE 20 0 0,0
25.06.2019 04:00:00 19,6 9,2 16,6 19,9 14,2 19 10 50 27 ESE 20 0 0,0
25.06.2019 03:00:00 19,7 9,3 17,0 19,9 14,2 21 12 51 28 ESE 20 0 0,0
25.06.2019 02:00:00 20,4 8,4 17,6 19,9 14,2 23 13 54 29 SE 20 0 0,0
25.06.2019 01:00:00 20,9 6,8 16,8 19,8 14,2 21 11 45 24 SE 20 0 0,0
25.06.2019 00:00:00 20,9 4,4 16,8 19,8 14,2 13 7 48 26 SSE 20 0 0,0
24.06.2019 23:00:00 21,4 5,3 16,0 19,7 14,2 19 10 39 21 SE 20 0 0,0
24.06.2019 22:00:00 20,7 7,3 16,6 19,5 14,2 10 5 25 14 E 20 9 0,0
24.06.2019 21:00:00 21,3 9,5 18,8 19,4 14,2 9 5 17 9 ESE 20 56 0,0
24.06.2019 20:00:00 22,0 9,5 21,1 19,1 14,1 4 2 37 20 SE 20 1 0,0
24.06.2019 19:00:00 22,7 8,8 22,8 19,0 14,1 19 10 38 20 SE 20 0 0,0
24.06.2019 18:00:00 23,9 10,2 25,6 18,8 14,2 20 11 35 19 SE 20 13 0,0
24.06.2019 17:00:00 25,5 12,3 28,8 18,6 14,1 15 8 38 20 SE 20 35 0,0
24.06.2019 16:00:00 25,6 11,4 33,3 18,6 14,1 19 10 38 21 SE 20 60 0,0
24.06.2019 15:00:00 26,4 10,9 36,9 18,6 14,1 15 8 35 19 SSE 20 60 0,0
24.06.2019 14:00:00 26,1 11,1 35,7 18,6 14,1 17 9 36 19 SSE 20 60 0,0
24.06.2019 13:00:00 25,4 10,8 30,2 18,7 14,1 18 10 41 22 SE 20 36 0,0
24.06.2019 12:00:00 24,9 10,0 31,1 18,7 14,1 14 8 36 19 SE 20 56 0,0
24.06.2019 11:00:00 24,6 11,2 30,1 18,9 14,1 9 5 28 15 SE 20 60 0,0
24.06.2019 10:00:00 22,2 12,7 23,0 19,0 14,1 5 3 16 9 ESE 20 33 0,0
24.06.2019 09:00:00 19,6 13,1 17,8 19,0 14,1 5 3 13 7 ENE 20 21 0,0
24.06.2019 08:00:00 17,7 11,9 14,9 19,2 14,1 10 5 18 10 ENE 20 9 0,0
24.06.2019 07:00:00 16,6 10,9 12,1 19,2 14,1 9 5 20 11 E 20 33 0,0
24.06.2019 06:00:00 15,9 11,5 12,3 19,3 14,1 7 4 19 10 E 20 0 0,0
24.06.2019 05:00:00 15,8 11,8 12,4 19,4 14,1 9 5 18 10 E 20 0 0,0
24.06.2019 04:00:00 15,3 12,4 12,6 19,4 14,0 8 4 13 7 ESE 20 0 0,0
24.06.2019 03:00:00 15,5 12,3 12,6 19,5 14,0 8 4 14 7 ESE 20 0 0,0
24.06.2019 02:00:00 16,4 12,7 11,7 19,4 14,1 8 4 13 7 E 20 0 0,0
24.06.2019 01:00:00 16,5 13,0 13,4 19,4 14,1 7 4 16 9 E 20 0 0,0
24.06.2019 00:00:00 17,6 13,5 13,8 19,3 14,0 9 5 18 10 E 20 0 0,0
23.06.2019 23:00:00 18,4 13,9 15,0 19,1 14,0 8 4 15 8 E 20 0 0,0
23.06.2019 22:00:00 19,8 14,4 17,4 19,0 14,0 8 5 13 7 ENE 20 2 0,0
23.06.2019 21:00:00 21,4 14,1 17,6 18,8 14,0 3 2 11 6 E 20 0 0,0
23.06.2019 20:00:00 22,9 14,2 22,7 18,6 13,9 8 5 14 7 S 20 23 0,0
23.06.2019 19:00:00 25,6 14,4 29,1 18,4 13,9 5 3 13 7 SW 20 41 0,0
23.06.2019 18:00:00 25,5 14,0 29,4 18,3 14,0 9 5 15 8 S 18 26 0,0
23.06.2019 17:00:00 25,3 13,5 31,1 18,2 14,0 6 3 20 11 S 20 22 0,0
23.06.2019 16:00:00 25,2 12,4 32,0 18,1 13,9 8 4 21 11 S 20 42 0,0
23.06.2019 15:00:00 24,9 11,8 31,3 18,1 13,9 7 4 20 11 S 20 15 0,0
23.06.2019 14:00:00 24,8 10,6 31,7 18,1 13,9 5 3 18 10 NW 20 35 0,0
23.06.2019 13:00:00 24,1 10,4 31,3 18,2 13,9 7 4 22 12 WSW 19 51 0,0
23.06.2019 12:00:00 22,6 12,8 32,2 18,3 13,9 9 5 20 11 S 20 60 0,0
23.06.2019 11:00:00 21,7 11,1 30,7 18,4 14,0 9 5 18 10 SSW 20 60 0,0
23.06.2019 10:00:00 20,8 12,0 22,2 18,6 13,9 5 3 10 5 SE 19 60 0,0
23.06.2019 09:00:00 18,1 11,9 13,7 18,7 13,9 5 3 11 6 E 20 60 0,0
23.06.2019 08:00:00 14,2 11,4 10,5 18,8 13,9 7 4 13 7 ESE 20 60 0,0
23.06.2019 07:00:00 11,3 10,0 9,6 18,9 13,9 9 5 14 8 ESE 20 18 0,2
23.06.2019 06:00:00 11,5 10,1 9,4 19,0 13,9 9 5 15 8 E 20 0 0,0
23.06.2019 05:00:00 12,1 10,7 10,0 19,1 13,9 10 5 14 7 E 20 0 0,0
23.06.2019 04:00:00 12,7 10,6 10,6 19,1 13,9 10 6 16 9 ESE 20 0 0,0
23.06.2019 03:00:00 13,4 10,9 10,5 19,1 13,9 9 5 16 9 E 20 0 0,0
23.06.2019 02:00:00 13,9 11,1 10,5 19,1 13,9 7 4 14 8 E 20 0 0,0
23.06.2019 01:00:00 14,4 11,0 10,6 19,0 13,9 8 4 14 8 E 20 0 0,0
23.06.2019 00:00:00 15,3 11,3 9,6 18,9 13,9 8 4 14 8 ENE 20 0 0,0
22.06.2019 23:00:00 15,3 12,4 - - - 2 1 11 6 NNW 20 - -
22.06.2019 22:00:00 16,7 13,0 12,6 18,5 13,9 4 2 7 4 W 20 9 0,0
22.06.2019 21:00:00 19,1 13,1 16,4 18,2 13,9 3 1 15 8 WSW 20 38 0,0
22.06.2019 20:00:00 21,5 13,9 21,2 18,0 13,8 11 6 19 11 SW 20 37 0,0
22.06.2019 19:00:00 22,7 12,0 24,5 17,7 13,8 9 5 19 10 NW 20 39 0,0
22.06.2019 18:00:00 22,9 12,2 24,1 17,6 13,9 10 5 17 9 SW 19 33 0,0
22.06.2019 17:00:00 23,5 11,5 27,3 17,4 13,8 10 5 23 12 W 9 53 0,0
22.06.2019 16:00:00 22,5 11,2 35,8 17,3 13,8 8 4 23 12 S 19 60 0,0
22.06.2019 15:00:00 22,0 12,3 36,0 17,2 13,8 11 6 24 13 SSW 19 60 0,0
22.06.2019 14:00:00 21,9 9,8 32,1 17,3 13,8 8 4 18 10 WSW 20 58 0,0
22.06.2019 13:00:00 20,7 10,2 35,5 17,3 13,8 7 4 17 9 S 19 60 0,0
22.06.2019 12:00:00 19,6 10,3 26,6 17,4 13,8 5 3 12 7 SSW 20 55 0,0
22.06.2019 11:00:00 18,2 12,2 26,7 17,5 13,8 7 4 13 7 W 20 57 0,0
22.06.2019 10:00:00 16,1 10,4 17,3 17,5 13,8 5 3 16 9 WSW 20 20 0,0
22.06.2019 09:00:00 15,0 10,4 13,9 17,7 13,8 4 2 19 10 WNW 20 35 0,0
22.06.2019 08:00:00 11,6 9,7 11,9 17,8 13,7 14 7 25 13 NNW 20 0 0,0
22.06.2019 07:00:00 11,4 10,5 11,5 17,8 13,8 4 2 11 6 W 20 0 0,0
22.06.2019 06:00:00 11,5 10,6 11,5 17,9 13,7 8 4 12 6 W 12 0 0,0
22.06.2019 05:00:00 11,4 10,5 11,5 18,0 13,8 6 3 15 8 WSW 20 0 0,0
22.06.2019 04:00:00 11,8 11,0 11,6 18,0 13,8 6 4 11 6 SW 12 0 0,0
22.06.2019 03:00:00 11,7 10,8 10,7 18,0 13,8 3 2 7 4 S 12 0 0,0
22.06.2019 02:00:00 12,0 11,2 9,6 18,0 13,7 8 5 19 11 W 0,4 0 0,0
22.06.2019 01:00:00 12,4 11,3 11,2 18,0 13,7 4 2 7 4 NW 14 0 0,0
22.06.2019 00:00:00 12,7 11,3 11,0 18,0 13,7 4 2 15 8 SW 12 0 0,0
21.06.2019 23:00:00 13,5 11,5 11,8 17,9 13,8 9 5 18 10 W 20 0 0,0
21.06.2019 22:00:00 14,8 12,3 14,4 17,8 13,7 9 5 22 12 WSW 20 0 0,0
21.06.2019 21:00:00 15,9 12,6 15,4 17,7 13,7 14 8 25 14 WSW 19 21 0,0
21.06.2019 20:00:00 19,6 12,8 21,6 17,6 13,7 14 8 31 17 W 20 60 0,0
21.06.2019 19:00:00 20,8 13,0 25,0 17,6 13,7 15 8 27 14 WSW 20 58 0,0
21.06.2019 18:00:00 21,4 12,5 27,3 17,5 13,7 13 7 25 13 WSW 20 42 0,0
21.06.2019 17:00:00 21,0 13,4 26,9 17,6 13,7 9 5 19 10 WSW 20 37 0,0
21.06.2019 16:00:00 19,7 14,3 23,9 17,6 13,6 8 5 16 9 W 20 10 0,0
21.06.2019 15:00:00 18,7 14,0 20,5 17,7 13,7 5 3 10 6 SW 20 21 0,0
21.06.2019 14:00:00 16,3 14,0 16,5 17,7 13,6 3 1 12 7 W 19 0 0,2
21.06.2019 13:00:00 16,9 13,8 18,4 17,8 13,7 8 5 15 8 WSW 20 0 0,0
21.06.2019 12:00:00 17,7 13,6 21,5 17,9 13,6 5 3 11 6 W 20 0 0,0
21.06.2019 11:00:00 17,5 12,2 21,5 18,0 13,6 6 3 11 6 SE 20 0 0,0
21.06.2019 10:00:00 16,4 13,1 18,6 18,1 13,6 6 4 14 8 SE 20 31 0,0
21.06.2019 09:00:00 14,6 12,8 13,3 18,3 13,6 7 4 12 7 ESE 20 8 0,0
21.06.2019 08:00:00 12,8 11,4 11,5 18,4 13,6 4 2 11 6 SE 20 14 0,0
21.06.2019 07:00:00 12,1 11,0 10,3 18,5 13,6 8 4 19 11 ESE 20 10 0,0
21.06.2019 06:00:00 11,9 10,5 9,8 18,6 13,6 8 5 14 8 E 20 0 0,0
21.06.2019 05:00:00 11,9 10,8 10,5 18,7 13,6 8 5 13 7 ENE 20 0 0,0
21.06.2019 04:00:00 12,7 11,6 10,8 18,8 13,6 5 3 15 8 SSE 1,4 0 0,0
21.06.2019 03:00:00 13,1 12,0 12,5 18,8 13,5 10 5 18 10 E 20 0 0,2
21.06.2019 02:00:00 13,4 12,5 12,8 18,8 13,5 9 5 13 7 ENE 12 0 4,6
21.06.2019 01:00:00 13,6 12,2 12,9 18,8 13,5 2 1 24 13 N 3,2 0 6,5
21.06.2019 00:00:00 15,0 12,1 13,7 18,7 13,5 6 4 15 8 ESE 7 0 0,4
20.06.2019 23:00:00 15,7 11,5 13,9 18,6 13,5 8 4 11 6 NNE 20 0 0,0
20.06.2019 22:00:00 16,6 10,9 14,2 18,5 13,5 7 4 15 8 ENE 18 0 0,0
20.06.2019 21:00:00 17,7 11,3 17,3 18,4 13,5 9 5 20 11 NE 20 10 0,0
20.06.2019 20:00:00 20,0 13,0 18,6 18,2 13,4 8 4 19 10 WSW 20 19 0,0
20.06.2019 19:00:00 21,7 12,8 22,5 18,1 13,5 12 7 22 12 NW 20 10 0,0

tt = Température de l'air
td = dewpoint
tt 5cm = Température de l'air 5cm
tt -20cm = Température de l'air -20cm
tt -100cm = Température de l'air -100cm
ff = Vitesse du vent
fx = gusts
dd = Direction du vent
vv = visibility
sd = Ensoleillement
rr = Quantités de précipitations

stations d'obs. à proximité